Time;durP1;ratioP1;P1;durP2;ratioP2;P2;SDS_P1;SDS_P2;PMS_P1;PMS_P2;Temp;Humidity;BMP_temperature;BMP_pressure;BME280_temperature;BME280_humidity;BME280_pressure;Samples;Min_cycle;Max_cycle;Signal;HPM_P1;HPM_P2
2023/03/31 00:01:07;;;;;;;1999.90;999.90;;;30.30;73.20;;;;;;5036892;28;20037;-73
2023/03/31 00:03:37;;;;;;;1999.90;999.90;;;30.50;75.10;;;;;;5028002;28;20473;-74
2023/03/31 00:06:05;;;;;;;1999.90;999.90;;;30.70;73.20;;;;;;5033347;28;20433;-71
2023/03/31 00:08:39;;;;;;;1999.90;999.90;;;30.70;72.60;;;;;;5029552;28;20091;-70
2023/03/31 00:11:07;;;;;;;1999.90;999.90;;;30.50;73.00;;;;;;5031287;28;20124;-71
2023/03/31 00:13:35;;;;;;;1999.90;999.90;;;30.70;72.40;;;;;;5026779;28;20539;-73
2023/03/31 00:16:06;;;;;;;1999.90;999.90;;;30.80;72.60;;;;;;5033248;28;20045;-74
2023/03/31 00:18:34;;;;;;;1999.90;999.90;;;30.90;73.70;;;;;;5034024;28;20112;-70
2023/03/31 00:21:23;;;;;;;1999.90;999.90;;;31.00;73.70;;;;;;5033015;28;20053;-70
2023/03/31 00:23:54;;;;;;;1999.90;999.90;;;31.50;73.10;;;;;;5030314;28;20035;-69
2023/03/31 00:26:22;;;;;;;1999.90;999.90;;;31.60;72.20;;;;;;5036295;28;20048;-70
2023/03/31 00:28:50;;;;;;;1999.90;999.90;;;31.80;72.60;;;;;;5033095;28;20124;-72
2023/03/31 00:31:17;;;;;;;1999.90;999.90;;;31.80;72.30;;;;;;5031386;28;20017;-71
2023/03/31 00:33:44;;;;;;;1999.90;999.90;;;31.90;72.20;;;;;;5026918;28;20175;-74
2023/03/31 00:36:12;;;;;;;1999.90;999.90;;;32.00;70.40;;;;;;5030200;28;20060;-74
2023/03/31 00:38:39;;;;;;;1999.90;999.90;;;32.00;71.40;;;;;;5026110;28;20029;-74
2023/03/31 00:41:07;;;;;;;1999.90;999.90;;;31.90;69.40;;;;;;5028826;28;20121;-70
2023/03/31 00:43:37;;;;;;;1999.90;999.90;;;31.60;70.40;;;;;;5023403;28;20048;-71
2023/03/31 00:46:30;;;;;;;1999.90;999.90;;;31.80;71.30;;;;;;5031879;28;20060;-70
2023/03/31 00:48:58;;;;;;;1999.90;999.90;;;31.70;70.60;;;;;;5025900;28;20108;-72
2023/03/31 00:51:34;;;;;;;1999.90;999.90;;;31.70;69.90;;;;;;5030370;28;20022;-71
2023/03/31 00:54:07;;;;;;;1999.90;999.90;;;31.80;70.90;;;;;;5032839;28;20390;-73
2023/03/31 00:56:39;;;;;;;1999.90;999.90;;;31.80;70.10;;;;;;5031969;28;20061;-73
2023/03/31 00:59:12;;;;;;;1999.90;999.90;;;31.60;69.80;;;;;;5033671;28;20029;-70
2023/03/31 01:01:43;;;;;;;1999.90;999.90;;;31.50;70.70;;;;;;5036286;28;20038;-71
2023/03/31 01:04:13;;;;;;;1999.90;999.90;;;31.90;70.00;;;;;;5032049;28;20559;-73
2023/03/31 01:07:01;;;;;;;1999.90;999.90;;;32.10;69.70;;;;;;5030863;28;20022;-71
2023/03/31 01:09:33;;;;;;;1999.90;999.90;;;32.10;69.30;;;;;;5032133;28;20040;-70
2023/03/31 01:12:04;;;;;;;1999.90;999.90;;;32.20;69.90;;;;;;5036994;28;20037;-71
2023/03/31 01:14:32;;;;;;;1999.90;999.90;;;32.50;70.60;;;;;;5029234;28;20445;-72
2023/03/31 01:17:01;;;;;;;1999.90;999.90;;;32.20;68.20;;;;;;5032590;28;20480;-70
2023/03/31 01:19:55;;;;;;;1999.90;999.90;;;32.10;68.40;;;;;;5033748;28;20033;-71
2023/03/31 01:22:37;;;;;;;1999.90;999.90;;;32.10;69.30;;;;;;5029514;28;21645;-71
2023/03/31 01:25:32;;;;;;;1999.90;999.90;;;32.40;70.50;;;;;;5028665;28;20031;-73
2023/03/31 01:28:26;;;;;;;1999.90;999.90;;;32.50;70.80;;;;;;5033149;28;20028;-70
2023/03/31 01:31:30;;;;;;;1999.90;999.90;;;32.80;69.40;;;;;;5031350;28;20031;-71
2023/03/31 01:34:16;;;;;;;1999.90;999.90;;;32.40;67.50;;;;;;5025941;28;20032;-72
2023/03/31 01:36:45;;;;;;;;;;;32.20;69.00;;;;;;5029518;28;20032;-71
2023/03/31 01:39:28;;;;;;;1999.90;999.90;;;32.00;69.00;;;;;;5029521;28;20038;-70
2023/03/31 01:42:04;;;;;;;1999.90;999.90;;;32.10;69.20;;;;;;5031276;28;20101;-70
2023/03/31 01:44:43;;;;;;;1999.90;999.90;;;31.80;68.10;;;;;;5032556;28;20021;-71
2023/03/31 01:47:24;;;;;;;1999.90;999.90;;;31.70;67.00;;;;;;5035122;28;20037;-70
2023/03/31 01:49:54;;;;;;;1999.90;999.90;;;31.40;67.90;;;;;;5034111;28;20032;-70
2023/03/31 01:52:27;;;;;;;1999.90;999.90;;;31.40;69.20;;;;;;5031497;28;20022;-71
2023/03/31 01:55:26;;;;;;;1999.90;999.90;;;31.30;68.80;;;;;;5029547;28;20041;-71
2023/03/31 01:58:20;;;;;;;1999.90;999.90;;;31.50;69.80;;;;;;5029887;28;20044;-69
2023/03/31 02:01:00;;;;;;;1999.90;999.90;;;31.70;68.70;;;;;;5029200;28;20518;-69
2023/03/31 02:03:42;;;;;;;1999.90;999.90;;;31.40;68.10;;;;;;5026097;28;20037;-73
2023/03/31 02:06:15;;;;;;;1999.90;999.90;;;31.50;69.30;;;;;;5024317;28;20028;-70
2023/03/31 02:08:47;;;;;;;1999.90;999.90;;;31.30;68.80;;;;;;5024829;28;20530;-69
2023/03/31 02:11:16;;;;;;;1999.90;999.90;;;31.40;69.60;;;;;;5022397;28;20033;-70
2023/03/31 02:13:48;;;;;;;1999.90;999.90;;;31.40;69.60;;;;;;5024262;28;20494;-71
2023/03/31 02:16:23;;;;;;;1999.90;999.90;;;31.60;70.10;;;;;;5029747;28;20128;-70
2023/03/31 02:18:53;;;;;;;1999.90;999.90;;;31.80;69.60;;;;;;5024945;28;20116;-72
2023/03/31 02:21:22;;;;;;;1999.90;999.90;;;32.00;69.20;;;;;;5027810;28;20124;-72
2023/03/31 02:23:51;;;;;;;1999.90;999.90;;;32.00;68.80;;;;;;5017527;28;20024;-72
2023/03/31 02:26:28;;;;;;;1999.90;999.90;;;31.80;68.00;;;;;;5021767;28;20017;-72
2023/03/31 02:28:55;;;;;;;1999.90;999.90;;;31.60;67.90;;;;;;5019021;28;20033;-72
2023/03/31 02:31:45;;;;;;;1999.90;999.90;;;31.70;67.70;;;;;;5020556;28;20060;-72
2023/03/31 02:34:12;;;;;;;1999.90;999.90;;;31.90;68.90;;;;;;5025106;28;20116;-72
2023/03/31 02:36:42;;;;;;;1999.90;999.90;;;32.10;67.10;;;;;;5031740;28;20104;-71
2023/03/31 02:39:15;;;;;;;1999.90;999.90;;;32.30;67.80;;;;;;5025788;28;20022;-72
2023/03/31 02:41:43;;;;;;;1999.90;999.90;;;32.40;67.50;;;;;;5028634;28;20030;-73
2023/03/31 02:44:11;;;;;;;1999.90;999.90;;;32.50;68.80;;;;;;5026332;28;20045;-70
2023/03/31 02:46:40;;;;;;;1999.90;999.90;;;32.50;67.60;;;;;;5028958;28;20683;-74
2023/03/31 02:49:10;;;;;;;1999.90;999.90;;;32.60;66.20;;;;;;5032898;28;20037;-71
2023/03/31 02:51:46;;;;;;;1999.90;999.90;;;32.60;67.10;;;;;;5038376;28;20151;-71
2023/03/31 02:54:22;;;;;;;1999.90;999.90;;;32.70;67.50;;;;;;5036867;28;20044;-71
2023/03/31 02:57:11;;;;;;;1999.90;999.90;;;32.50;66.50;;;;;;5030129;28;20022;-71
2023/03/31 03:00:05;;;;;;;1999.90;999.90;;;32.60;67.00;;;;;;5030927;28;20065;-70
2023/03/31 03:02:44;;;;;;;1999.90;999.90;;;32.70;68.00;;;;;;5028290;28;20074;-71
2023/03/31 03:05:33;;;;;;;1999.90;999.90;;;32.80;66.90;;;;;;5034604;28;20145;-72
2023/03/31 03:08:14;;;;;;;1999.90;999.90;;;32.50;66.30;;;;;;5035656;28;20052;-72
2023/03/31 03:11:10;;;;;;;1999.90;999.90;;;32.20;65.40;;;;;;5028386;28;20057;-71
2023/03/31 03:13:56;;;;;;;1999.90;999.90;;;32.00;68.10;;;;;;5029192;28;20112;-71
2023/03/31 03:16:26;;;;;;;1999.90;999.90;;;32.20;67.90;;;;;;5023634;28;20049;-71
2023/03/31 03:18:59;;;;;;;1999.90;999.90;;;32.30;67.30;;;;;;5021555;28;20093;-73
2023/03/31 03:21:27;;;;;;;1999.90;999.90;;;32.50;68.60;;;;;;5021834;28;20050;-71
2023/03/31 03:23:54;;;;;;;1999.90;999.90;;;32.50;67.40;;;;;;5020397;28;20380;-71
2023/03/31 03:26:23;;;;;;;1999.90;999.90;;;32.40;66.10;;;;;;5027076;28;20037;-71
2023/03/31 03:28:54;;;;;;;1999.90;999.90;;;32.40;66.90;;;;;;5028442;28;20112;-73
2023/03/31 03:31:22;;;;;;;1999.90;999.90;;;32.50;67.70;;;;;;5035916;28;20875;-70
2023/03/31 03:33:53;;;;;;;1999.90;999.90;;;32.60;66.50;;;;;;5025686;28;20550;-72
2023/03/31 03:36:21;;;;;;;1999.90;999.90;;;32.50;67.60;;;;;;5029371;28;20041;-71
2023/03/31 03:38:49;;;;;;;1999.90;999.90;;;32.40;66.50;;;;;;5029461;28;20044;-71
2023/03/31 03:41:18;;;;;;;1999.90;999.90;;;32.30;67.70;;;;;;5032317;28;20032;-71
2023/03/31 03:43:46;;;;;;;1999.90;999.90;;;32.30;67.30;;;;;;5020570;28;20073;-71
2023/03/31 03:46:13;;;;;;;1999.90;999.90;;;32.30;67.30;;;;;;5024276;28;20110;-72
2023/03/31 03:48:40;;;;;;;1999.90;999.90;;;32.40;67.30;;;;;;5030041;28;20045;-70
2023/03/31 03:51:08;;;;;;;1999.90;999.90;;;32.50;67.50;;;;;;5037302;28;20118;-71
2023/03/31 03:53:35;;;;;;;1999.90;999.90;;;32.40;65.80;;;;;;5028506;28;20160;-75
2023/03/31 03:56:02;;;;;;;1999.90;999.90;;;32.00;67.70;;;;;;5038238;28;20353;-71
2023/03/31 03:58:29;;;;;;;1999.90;999.90;;;32.00;66.30;;;;;;5035670;28;20044;-71
2023/03/31 04:00:57;;;;;;;1999.90;999.90;;;31.90;66.20;;;;;;5024131;28;20400;-75
2023/03/31 04:03:24;;;;;;;1999.90;999.90;;;32.00;68.10;;;;;;5018581;28;20107;-72
2023/03/31 04:05:52;;;;;;;1999.90;999.90;;;32.00;68.10;;;;;;5026044;28;20038;-72
2023/03/31 04:08:19;;;;;;;1999.90;999.90;;;32.10;69.10;;;;;;5031335;28;20029;-74
2023/03/31 04:10:48;;;;;;;1999.90;999.90;;;32.00;67.80;;;;;;5028716;28;20085;-73
2023/03/31 04:13:17;;;;;;;1999.90;999.90;;;31.90;68.30;;;;;;5028375;28;20111;-72
2023/03/31 04:15:44;;;;;;;1999.90;999.90;;;31.90;68.90;;;;;;5028582;28;20099;-71
2023/03/31 04:18:21;;;;;;;1999.90;999.90;;;32.00;67.50;;;;;;5028413;28;20026;-72
2023/03/31 04:21:02;;;;;;;1999.90;999.90;;;31.50;66.40;;;;;;5037999;28;20033;-71
2023/03/31 04:23:31;;;;;;;1999.90;999.90;;;31.30;67.60;;;;;;5028461;28;20487;-71
2023/03/31 04:25:59;;;;;;;1999.90;999.90;;;31.20;67.90;;;;;;5026544;28;20376;-71
2023/03/31 04:28:33;;;;;;;1999.90;999.90;;;31.30;68.90;;;;;;5029946;28;20047;-73
2023/03/31 04:31:02;;;;;;;1999.90;999.90;;;31.40;69.20;;;;;;5031116;28;20085;-73
2023/03/31 04:33:32;;;;;;;1999.90;999.90;;;31.50;69.50;;;;;;5030370;28;20556;-72
2023/03/31 04:36:05;;;;;;;1999.90;999.90;;;31.50;67.70;;;;;;5033591;28;20123;-73
2023/03/31 04:38:33;;;;;;;1999.90;999.90;;;31.10;67.30;;;;;;5032296;28;20128;-73
2023/03/31 04:41:01;;;;;;;1999.90;999.90;;;30.90;70.00;;;;;;5028551;28;20040;-72
2023/03/31 04:43:28;;;;;;;1999.90;999.90;;;30.80;70.30;;;;;;5029550;28;20505;-73
2023/03/31 04:45:55;;;;;;;1999.90;999.90;;;30.80;69.80;;;;;;5033285;28;20167;-72
2023/03/31 04:48:23;;;;;;;1999.90;999.90;;;30.90;69.20;;;;;;5035498;28;20025;-73
2023/03/31 04:50:50;;;;;;;1999.90;999.90;;;30.90;69.40;;;;;;5033951;28;20022;-73
2023/03/31 04:53:17;;;;;;;1999.90;999.90;;;30.90;69.70;;;;;;5035513;28;20575;-72
2023/03/31 04:55:45;;;;;;;1999.90;999.90;;;30.90;69.80;;;;;;5038013;28;20041;-72
2023/03/31 04:58:12;;;;;;;1999.90;999.90;;;30.80;70.20;;;;;;5037202;28;20025;-70
2023/03/31 05:00:39;;;;;;;1999.90;999.90;;;30.80;70.70;;;;;;5033607;28;20033;-73
2023/03/31 05:03:08;;;;;;;1999.90;999.90;;;30.80;70.80;;;;;;5032986;28;20104;-74
2023/03/31 05:05:36;;;;;;;1999.90;999.90;;;30.80;70.40;;;;;;5037291;28;20507;-73
2023/03/31 05:08:04;;;;;;;1999.90;999.90;;;30.70;69.70;;;;;;5033209;28;20100;-72
2023/03/31 05:10:31;;;;;;;1999.90;999.90;;;30.70;69.60;;;;;;5032730;28;20075;-75
2023/03/31 05:12:59;;;;;;;1999.90;999.90;;;30.60;70.80;;;;;;5033398;28;20021;-73
2023/03/31 05:15:26;;;;;;;1999.90;999.90;;;30.60;71.00;;;;;;5035171;28;20041;-72
2023/03/31 05:17:53;;;;;;;1999.90;999.90;;;30.50;70.50;;;;;;5029081;28;20017;-71
2023/03/31 05:20:21;;;;;;;1999.90;999.90;;;30.50;70.80;;;;;;5031935;28;20028;-72
2023/03/31 05:22:49;;;;;;;1999.90;999.90;;;30.40;71.00;;;;;;5031836;28;20153;-75
2023/03/31 05:25:19;;;;;;;1999.90;999.90;;;30.40;71.00;;;;;;5037925;28;20476;-71
2023/03/31 05:27:47;;;;;;;1999.90;999.90;;;30.40;70.80;;;;;;5027551;28;20031;-72
2023/03/31 05:30:16;;;;;;;1999.90;999.90;;;30.30;70.40;;;;;;5036429;28;20032;-72
2023/03/31 05:32:44;;;;;;;1999.90;999.90;;;30.30;70.50;;;;;;5029045;28;20116;-71
2023/03/31 05:35:12;;;;;;;1999.90;999.90;;;30.20;70.90;;;;;;5033173;28;20032;-72
2023/03/31 05:37:40;;;;;;;1999.90;999.90;;;30.10;71.00;;;;;;5022105;28;20037;-73
2023/03/31 05:40:08;;;;;;;1999.90;999.90;;;30.10;71.20;;;;;;5032793;28;20033;-73
2023/03/31 05:42:36;;;;;;;1999.90;999.90;;;30.00;70.40;;;;;;5021263;28;20029;-72
2023/03/31 05:45:03;;;;;;;1999.90;999.90;;;29.90;70.60;;;;;;5029161;28;20122;-71
2023/03/31 05:47:31;;;;;;;1999.90;999.90;;;29.90;70.80;;;;;;5026485;28;22297;-72
2023/03/31 05:49:58;;;;;;;1999.90;999.90;;;29.80;70.50;;;;;;5029795;28;20030;-72
2023/03/31 05:52:25;;;;;;;1999.90;999.90;;;29.70;71.30;;;;;;5020201;28;20021;-71
2023/03/31 05:54:53;;;;;;;1999.90;999.90;;;29.60;71.30;;;;;;5033589;28;20045;-72
2023/03/31 05:57:20;;;;;;;1999.90;999.90;;;29.50;72.30;;;;;;5029932;28;20021;-70
2023/03/31 05:59:47;;;;;;;1999.90;999.90;;;29.40;71.90;;;;;;5031136;28;20033;-71
2023/03/31 06:02:15;;;;;;;1999.90;999.90;;;29.40;71.90;;;;;;5029422;28;20103;-73
2023/03/31 06:04:43;;;;;;;1999.90;999.90;;;29.40;71.80;;;;;;5020689;28;20037;-74
2023/03/31 06:07:10;;;;;;;1999.90;999.90;;;29.10;72.00;;;;;;5027380;28;20021;-72
2023/03/31 06:09:37;;;;;;;1999.90;999.90;;;28.80;71.90;;;;;;5031858;28;20037;-71
2023/03/31 06:12:05;;;;;;;1999.90;999.90;;;28.50;72.50;;;;;;5031069;28;20147;-71
2023/03/31 06:14:32;;;;;;;1999.90;999.90;;;28.60;72.50;;;;;;5024546;28;20057;-72
2023/03/31 06:17:01;;;;;;;1999.90;999.90;;;28.80;71.00;;;;;;5035477;28;20034;-72
2023/03/31 06:19:28;;;;;;;1999.90;999.90;;;28.90;71.20;;;;;;5035933;28;20520;-73
2023/03/31 06:21:55;;;;;;;1999.90;999.90;;;29.00;71.40;;;;;;5034058;28;20040;-74
2023/03/31 06:24:23;;;;;;;1999.90;999.90;;;29.00;71.30;;;;;;5029244;28;20032;-71
2023/03/31 06:26:50;;;;;;;1999.90;999.90;;;28.80;71.10;;;;;;5035382;28;20036;-73
2023/03/31 06:29:17;;;;;;;1999.90;999.90;;;28.60;71.20;;;;;;5033730;28;20021;-73
2023/03/31 06:31:45;;;;;;;1999.90;999.90;;;28.40;71.60;;;;;;5031271;28;20035;-70
2023/03/31 06:34:12;;;;;;;1999.90;999.90;;;28.20;72.30;;;;;;5030999;28;20026;-71
2023/03/31 06:36:40;;;;;;;1999.90;999.90;;;27.90;72.40;;;;;;5033630;28;20364;-70
2023/03/31 06:39:08;;;;;;;1999.90;999.90;;;27.80;73.20;;;;;;5033509;28;20026;-70
2023/03/31 06:41:36;;;;;;;1999.90;999.90;;;27.70;73.40;;;;;;5030886;28;20044;-71
2023/03/31 06:44:03;;;;;;;1999.90;999.90;;;27.60;73.30;;;;;;5029506;28;20375;-72
2023/03/31 06:46:30;;;;;;;1999.90;999.90;;;27.40;73.40;;;;;;5029296;28;20074;-70
2023/03/31 06:48:58;;;;;;;1999.90;999.90;;;27.20;73.50;;;;;;5025641;28;20095;-71
2023/03/31 06:51:25;;;;;;;1999.90;999.90;;;27.10;73.60;;;;;;5031194;28;20056;-70
2023/03/31 06:53:52;;;;;;;1999.90;999.90;;;26.90;73.90;;;;;;5031141;28;20029;-72
2023/03/31 06:56:20;;;;;;;1999.90;999.90;;;26.80;74.20;;;;;;5031543;28;20044;-71
2023/03/31 06:58:48;;;;;;;1999.90;999.90;;;26.60;74.20;;;;;;5026338;28;20025;-73
2023/03/31 07:01:15;;;;;;;1999.90;999.90;;;26.50;74.20;;;;;;5024392;28;20025;-72
2023/03/31 07:03:42;;;;;;;1999.90;999.90;;;26.40;74.50;;;;;;5022492;28;20034;-70
2023/03/31 07:06:10;;;;;;;1999.90;999.90;;;26.30;75.00;;;;;;5025498;28;20053;-71
2023/03/31 07:08:37;;;;;;;1999.90;999.90;;;26.20;75.60;;;;;;5020356;28;20384;-71
2023/03/31 07:11:05;;;;;;;1999.90;999.90;;;26.20;75.60;;;;;;5025724;28;20103;-74
2023/03/31 07:13:32;;;;;;;1999.90;999.90;;;26.00;75.70;;;;;;5017487;28;20130;-72
2023/03/31 07:15:59;;;;;;;1999.90;999.90;;;26.00;75.60;;;;;;5028909;28;20553;-71
2023/03/31 07:18:30;;;;;;;1999.90;999.90;;;25.90;76.30;;;;;;5021552;28;20488;-71
2023/03/31 07:20:58;;;;;;;1999.90;999.90;;;25.80;76.70;;;;;;5023175;28;20033;-70
2023/03/31 07:23:26;;;;;;;1999.90;999.90;;;25.80;76.30;;;;;;5021500;28;20144;-71
2023/03/31 07:25:54;;;;;;;1999.90;999.90;;;25.80;75.80;;;;;;5027084;28;20033;-72
2023/03/31 07:28:21;;;;;;;1999.90;999.90;;;25.70;76.50;;;;;;5031438;28;20041;-74
2023/03/31 07:30:49;;;;;;;1999.90;999.90;;;25.70;76.00;;;;;;5028153;28;20416;-72
2023/03/31 07:33:16;;;;;;;1999.90;999.90;;;25.50;76.00;;;;;;5032081;28;20021;-72
2023/03/31 07:35:44;;;;;;;1999.90;999.90;;;25.40;76.20;;;;;;5027708;28;20514;-72
2023/03/31 07:38:12;;;;;;;1999.90;999.90;;;25.20;76.50;;;;;;5028675;28;20373;-70
2023/03/31 07:40:40;;;;;;;1999.90;999.90;;;25.10;77.00;;;;;;5032894;28;20033;-73
2023/03/31 07:43:08;;;;;;;1999.90;999.90;;;25.00;76.90;;;;;;5031968;28;20041;-72
2023/03/31 07:45:35;;;;;;;1999.90;999.90;;;24.90;77.00;;;;;;5031982;28;20044;-70
2023/03/31 07:48:03;;;;;;;1999.90;999.90;;;24.70;77.00;;;;;;5031546;28;20124;-72
2023/03/31 07:50:30;;;;;;;1999.90;999.90;;;24.70;77.40;;;;;;5037435;28;20372;-71
2023/03/31 07:52:59;;;;;;;1999.90;999.90;;;24.60;77.20;;;;;;5032758;28;20025;-71
2023/03/31 07:55:26;;;;;;;1999.90;999.90;;;24.50;77.50;;;;;;5034104;28;20484;-69
2023/03/31 07:57:54;;;;;;;1999.90;999.90;;;24.30;77.60;;;;;;5031249;28;20037;-70
2023/03/31 08:00:22;;;;;;;1999.90;999.90;;;24.20;77.80;;;;;;5036215;28;20087;-72
2023/03/31 08:02:49;;;;;;;1999.90;999.90;;;24.00;78.30;;;;;;5034477;28;20033;-72
2023/03/31 08:05:18;;;;;;;1999.90;999.90;;;23.90;78.70;;;;;;5038767;28;20033;-71
2023/03/31 08:07:47;;;;;;;1999.90;999.90;;;23.90;78.90;;;;;;5029929;28;20376;-70
2023/03/31 08:10:22;;;;;;;1999.90;999.90;;;23.80;79.00;;;;;;5037016;28;20033;-73
2023/03/31 08:12:49;;;;;;;1999.90;999.90;;;23.80;78.90;;;;;;5030454;28;20400;-71
2023/03/31 08:15:17;;;;;;;1999.90;999.90;;;23.70;79.00;;;;;;5038965;28;20045;-72
2023/03/31 08:17:44;;;;;;;1999.90;999.90;;;23.70;79.60;;;;;;5033046;28;20480;-70
2023/03/31 08:20:12;;;;;;;1999.90;999.90;;;23.50;80.10;;;;;;5035504;28;20083;-71
2023/03/31 08:22:40;;;;;;;1999.90;999.90;;;23.50;80.50;;;;;;5033584;28;20017;-71
2023/03/31 08:25:08;;;;;;;1999.90;999.90;;;23.50;80.50;;;;;;5033995;28;20111;-70
2023/03/31 08:27:39;;;;;;;1999.90;999.90;;;23.40;80.50;;;;;;5027266;28;20033;-72
2023/03/31 08:30:09;;;;;;;1999.90;999.90;;;23.40;80.90;;;;;;5034091;28;20027;-71
2023/03/31 08:32:37;;;;;;;1999.90;999.90;;;23.40;81.30;;;;;;5031904;28;20491;-72
2023/03/31 08:35:05;;;;;;;1999.90;999.90;;;23.40;81.40;;;;;;5035796;28;20029;-72
2023/03/31 08:37:33;;;;;;;1999.90;999.90;;;23.20;81.90;;;;;;5027713;28;20118;-70
2023/03/31 08:40:00;;;;;;;1999.90;999.90;;;23.00;82.60;;;;;;5023624;28;20140;-72
2023/03/31 08:42:48;;;;;;;1999.90;999.90;;;22.80;83.30;;;;;;5024040;28;20020;-70
2023/03/31 08:45:34;;;;;;;1999.90;999.90;;;22.70;83.70;;;;;;5027360;28;20479;-73
2023/03/31 08:48:07;;;;;;;1999.90;999.90;;;22.80;83.50;;;;;;5030066;28;20051;-71
2023/03/31 08:50:39;;;;;;;1999.90;999.90;;;22.80;83.20;;;;;;5033377;28;20053;-70
2023/03/31 08:53:22;;;;;;;1999.90;999.90;;;22.80;83.10;;;;;;5026806;28;20056;-70
2023/03/31 08:55:54;;;;;;;1999.90;999.90;;;22.80;83.40;;;;;;5023074;28;20139;-70
2023/03/31 08:58:40;;;;;;;1999.90;999.90;;;22.60;83.60;;;;;;5021756;28;20149;-72
2023/03/31 09:01:29;;;;;;;1999.90;999.90;;;22.60;84.00;;;;;;5029782;28;20424;-72
2023/03/31 09:03:57;;;;;;;1999.90;999.90;;;22.50;84.80;;;;;;5022929;28;20488;-70
2023/03/31 09:06:37;;;;;;;1999.90;999.90;;;22.40;85.70;;;;;;5020163;28;20052;-70
2023/03/31 09:09:10;;;;;;;1999.90;999.90;;;22.20;86.10;;;;;;5021807;28;20056;-71
2023/03/31 09:11:40;;;;;;;1999.90;999.90;;;22.20;86.60;;;;;;5022100;28;20029;-72
2023/03/31 09:14:33;;;;;;;1999.90;999.90;;;22.10;86.40;;;;;;5023831;28;20112;-72
2023/03/31 09:17:17;;;;;;;1999.90;999.90;;;22.20;86.80;;;;;;5018332;28;20044;-70
2023/03/31 09:20:13;;;;;;;1999.90;999.90;;;22.20;87.40;;;;;;5025397;28;20025;-70
2023/03/31 09:23:19;;;;;;;1999.90;999.90;;;22.20;87.40;;;;;;5035880;28;20116;-70
2023/03/31 09:25:46;;;;;;;;;;;22.20;86.60;;;;;;5031345;28;20480;-70
2023/03/31 09:28:21;;;;;;;1999.90;999.90;;;22.20;86.70;;;;;;5032932;28;19912;-70
2023/03/31 09:30:49;;;;;;;1999.90;999.90;;;22.20;87.30;;;;;;5034453;28;20479;-70
2023/03/31 09:33:30;;;;;;;1999.90;999.90;;;22.20;87.80;;;;;;5032901;28;20116;-72
2023/03/31 09:36:02;;;;;;;1999.90;999.90;;;22.20;88.10;;;;;;5023734;28;20117;-69
2023/03/31 09:38:30;;;;;;;1999.90;999.90;;;22.20;88.40;;;;;;5030239;28;20112;-70
2023/03/31 09:41:02;;;;;;;1999.90;999.90;;;22.20;88.00;;;;;;5034078;28;20447;-70
2023/03/31 09:43:33;;;;;;;1999.90;999.90;;;22.20;88.30;;;;;;5025188;28;20026;-70
2023/03/31 09:46:02;;;;;;;1999.90;999.90;;;22.10;88.40;;;;;;5037330;28;20049;-71
2023/03/31 09:48:35;;;;;;;1999.90;999.90;;;22.10;89.10;;;;;;5029803;28;20095;-68
2023/03/31 09:51:13;;;;;;;1999.90;999.90;;;22.00;89.60;;;;;;5036071;28;20033;-71
2023/03/31 09:53:45;;;;;;;1999.90;999.90;;;22.00;89.50;;;;;;5030165;28;20036;-70
2023/03/31 09:56:13;;;;;;;1999.90;999.90;;;21.90;88.70;;;;;;5031772;28;20080;-70
2023/03/31 09:58:48;;;;;;;1999.90;999.90;;;22.00;89.10;;;;;;5028534;28;20029;-71
2023/03/31 10:01:15;;;;;;;1999.90;999.90;;;21.90;89.50;;;;;;5033733;28;20029;-72
2023/03/31 10:03:51;;;;;;;1999.90;999.90;;;21.90;89.40;;;;;;5032524;28;20025;-70
2023/03/31 10:06:19;;;;;;;1999.90;999.90;;;21.80;89.70;;;;;;5038818;28;20112;-70
2023/03/31 10:08:46;;;;;;;1999.90;999.90;;;21.80;89.20;;;;;;5035115;28;20044;-69
2023/03/31 10:11:14;;;;;;;1999.90;999.90;;;21.70;88.70;;;;;;5031578;28;20117;-70
2023/03/31 10:14:07;;;;;;;1999.90;999.90;;;21.70;88.50;;;;;;5027814;28;20025;-70
2023/03/31 10:16:46;;;;;;;1999.90;999.90;;;21.70;87.80;;;;;;5031837;28;20135;-68
2023/03/31 10:19:26;;;;;;;1999.90;999.90;;;21.60;87.90;;;;;;5028769;28;20040;-71
2023/03/31 10:21:59;;;;;;;1999.90;999.90;;;21.60;88.30;;;;;;5030218;28;20116;-69
2023/03/31 10:24:38;;;;;;;1999.90;999.90;;;21.60;88.50;;;;;;5027113;28;20021;-72
2023/03/31 10:27:17;;;;;;;1999.90;999.90;;;21.60;88.50;;;;;;5029017;28;20025;-72
2023/03/31 10:29:59;;;;;;;1999.90;999.90;;;21.50;88.40;;;;;;5028509;28;20156;-72
2023/03/31 10:32:29;;;;;;;1999.90;999.90;;;21.50;88.40;;;;;;5031911;28;21705;-72
2023/03/31 10:34:58;;;;;;;1999.90;999.90;;;21.50;88.10;;;;;;5029736;28;20076;-72
2023/03/31 10:37:28;;;;;;;1999.90;999.90;;;21.40;88.40;;;;;;5028538;28;20586;-72
2023/03/31 10:40:20;;;;;;;1999.90;999.90;;;21.40;88.20;;;;;;5029181;28;20041;-72
2023/03/31 10:42:59;;;;;;;1999.90;999.90;;;21.40;88.70;;;;;;5026087;28;20033;-72
2023/03/31 10:45:29;;;;;;;1999.90;999.90;;;21.30;88.70;;;;;;5021838;28;20037;-71
2023/03/31 10:48:00;;;;;;;1999.90;999.90;;;21.30;88.70;;;;;;5028862;28;20033;-71
2023/03/31 10:50:33;;;;;;;1999.90;999.90;;;21.20;88.90;;;;;;5026976;28;20029;-70
2023/03/31 10:53:14;;;;;;;1999.90;999.90;;;21.10;88.90;;;;;;5025715;28;20025;-71
2023/03/31 10:56:06;;;;;;;1999.90;999.90;;;21.10;89.00;;;;;;5035126;28;20030;-71
2023/03/31 10:59:03;;;;;;;1999.90;999.90;;;21.10;89.10;;;;;;5038312;28;20021;-72
2023/03/31 11:02:07;;;;;;;1999.90;999.90;;;21.00;89.20;;;;;;5028919;28;20040;-69
2023/03/31 11:04:56;;;;;;;1999.90;999.90;;;21.00;88.90;;;;;;5027137;28;20032;-71
2023/03/31 11:07:44;;;;;;;1999.90;999.90;;;21.00;89.30;;;;;;5029997;28;20033;-71
2023/03/31 11:10:30;;;;;;;1999.90;999.90;;;21.00;89.10;;;;;;5031362;28;20029;-70
2023/03/31 11:13:46;;;;;;;1999.90;999.90;;;20.90;89.60;;;;;;5026928;28;20029;-71
2023/03/31 11:16:28;;;;;;;1999.90;999.90;;;21.00;89.60;;;;;;5035770;28;20042;-72
2023/03/31 11:19:05;;;;;;;1999.90;999.90;;;20.90;89.70;;;;;;5039465;28;20029;-69
2023/03/31 11:21:42;;;;;;;1999.90;999.90;;;20.90;89.50;;;;;;5038006;28;20028;-68
2023/03/31 11:24:27;;;;;;;1999.90;999.90;;;20.90;90.00;;;;;;5029113;28;20384;-69
2023/03/31 11:27:28;;;;;;;1999.90;999.90;;;20.90;90.10;;;;;;5038974;28;20033;-70
2023/03/31 11:30:40;;;;;;;1999.90;999.90;;;20.80;90.10;;;;;;5051279;28;20029;-70
2023/03/31 11:33:47;;;;;;;1999.90;999.90;;;20.70;90.00;;;;;;5043193;28;20123;-70
2023/03/31 11:36:21;;;;;;;;;;;20.70;90.20;;;;;;5046872;28;20514;-71
2023/03/31 11:39:15;;;;;;;1999.90;999.90;;;20.60;90.30;;;;;;5041554;28;20279;-72
2023/03/31 11:42:08;;;;;;;1999.90;999.90;;;20.50;90.30;;;;;;5041397;28;20499;-69
2023/03/31 11:44:51;;;;;;;1999.90;999.90;;;20.40;90.30;;;;;;5036026;28;20040;-70
2023/03/31 11:47:46;;;;;;;1999.90;999.90;;;20.40;90.50;;;;;;5034995;28;20080;-71
2023/03/31 11:50:22;;;;;;;1999.90;999.90;;;20.30;90.60;;;;;;5038893;28;20060;-72
2023/03/31 11:53:22;;;;;;;1999.90;999.90;;;20.30;90.70;;;;;;5034735;28;20107;-71
2023/03/31 11:55:53;;;;;;;1999.90;999.90;;;20.20;90.70;;;;;;5037996;28;20045;-70
2023/03/31 11:58:36;;;;;;;1999.90;999.90;;;20.20;90.90;;;;;;5032817;28;20021;-71
2023/03/31 12:01:35;;;;;;;1999.90;999.90;;;20.20;91.10;;;;;;5034960;28;20753;-71
2023/03/31 12:04:02;;;;;;;1999.90;999.90;;;20.20;91.20;;;;;;4985025;28;20277;-72
2023/03/31 12:06:38;;;;;;;1999.90;999.90;;;20.10;91.30;;;;;;4991022;28;20027;-70
2023/03/31 12:09:21;;;;;;;1999.90;999.90;;;20.10;91.50;;;;;;5031445;28;20047;-69
2023/03/31 12:12:12;;;;;;;1999.90;999.90;;;20.00;91.50;;;;;;5035612;28;20029;-69
2023/03/31 12:14:42;;;;;;;1999.90;999.90;;;20.00;91.50;;;;;;5035263;28;20025;-71
2023/03/31 12:17:13;;;;;;;1999.90;999.90;;;19.90;91.60;;;;;;5036203;28;20076;-71
2023/03/31 12:19:55;;;;;;;1999.90;999.90;;;19.90;91.70;;;;;;5038890;28;20104;-69
2023/03/31 12:22:37;;;;;;;1999.90;999.90;;;19.80;92.00;;;;;;5027052;28;20021;-70
2023/03/31 12:25:05;;;;;;;1999.90;999.90;;;19.70;92.20;;;;;;5039442;28;20033;-71
2023/03/31 12:27:41;;;;;;;1999.90;999.90;;;19.50;92.60;;;;;;5030919;28;20483;-72
2023/03/31 12:30:10;;;;;;;;;;;19.40;93.10;;;;;;5030541;28;20031;-73
2023/03/31 12:32:42;;;;;;;1999.90;999.90;;;19.30;93.70;;;;;;5032882;28;19912;-71